Time;durP1;ratioP1;P1;durP2;ratioP2;P2;SDS_P1;SDS_P2;PMS_P1;PMS_P2;Temp;Humidity;BMP_temperature;BMP_pressure;BME280_temperature;BME280_humidity;BME280_pressure;Samples;Min_cycle;Max_cycle;Signal;HPM_P1;HPM_P2
2023/10/30 00:00:08;;;;;;;4.50;1.10;;;11.10;99.90;;;;;;5073188;28;20039;-47
2023/10/30 00:02:35;;;;;;;5.93;1.17;;;11.10;99.90;;;;;;5072859;28;20047;-45
2023/10/30 00:05:02;;;;;;;5.22;1.20;;;11.10;99.90;;;;;;5073164;28;20167;-46
2023/10/30 00:07:27;;;;;;;4.28;1.10;;;11.10;99.90;;;;;;5071758;28;20040;-44
2023/10/30 00:09:53;;;;;;;8.52;1.60;;;11.00;99.90;;;;;;5072625;28;20043;-45
2023/10/30 00:12:19;;;;;;;6.93;1.45;;;11.00;99.90;;;;;;5072723;28;20060;-46
2023/10/30 00:14:45;;;;;;;6.05;1.30;;;11.00;99.90;;;;;;5073380;28;20044;-46
2023/10/30 00:17:11;;;;;;;6.05;1.42;;;11.00;99.90;;;;;;5072889;28;20075;-45
2023/10/30 00:19:36;;;;;;;9.00;1.88;;;11.00;99.90;;;;;;5072651;28;20044;-44
2023/10/30 00:22:02;;;;;;;7.85;1.40;;;11.00;99.90;;;;;;5064851;28;20046;-49
2023/10/30 00:24:29;;;;;;;5.38;1.05;;;11.00;99.90;;;;;;5054846;28;20040;-46
2023/10/30 00:26:55;;;;;;;4.97;1.10;;;10.90;99.90;;;;;;5052515;28;20041;-47
2023/10/30 00:29:21;;;;;;;8.10;1.95;;;10.90;99.90;;;;;;5052325;28;20043;-45
2023/10/30 00:31:47;;;;;;;9.07;1.42;;;10.90;99.90;;;;;;5052389;28;20044;-46
2023/10/30 00:34:13;;;;;;;8.77;1.30;;;10.80;99.90;;;;;;5046544;28;20064;-45
2023/10/30 00:36:39;;;;;;;4.53;1.45;;;10.80;99.90;;;;;;5052077;28;20037;-46
2023/10/30 00:39:05;;;;;;;7.57;1.13;;;10.80;99.90;;;;;;5052233;28;20072;-49
2023/10/30 00:41:31;;;;;;;8.88;1.63;;;10.80;99.90;;;;;;5062523;28;20115;-47
2023/10/30 00:43:57;;;;;;;7.28;1.15;;;10.70;99.90;;;;;;5072081;28;20041;-50
2023/10/30 00:46:22;;;;;;;4.55;1.10;;;10.70;99.90;;;;;;5072159;28;20059;-47
2023/10/30 00:48:48;;;;;;;6.38;1.63;;;10.70;99.90;;;;;;5070899;28;20032;-47
2023/10/30 00:51:14;;;;;;;6.25;1.20;;;10.70;99.90;;;;;;5067680;28;20064;-49
2023/10/30 00:53:41;;;;;;;5.13;1.15;;;10.70;99.90;;;;;;5053851;28;20052;-48
2023/10/30 00:56:07;;;;;;;5.43;1.50;;;10.60;99.90;;;;;;5065762;28;20033;-48
2023/10/30 00:58:34;;;;;;;5.18;1.10;;;10.60;99.90;;;;;;5062259;28;20043;-47
2023/10/30 01:01:00;;;;;;;4.47;0.80;;;10.60;99.90;;;;;;5072179;28;20055;-50
2023/10/30 01:03:25;;;;;;;5.35;1.13;;;10.60;99.90;;;;;;5072114;28;20044;-48
2023/10/30 01:05:58;;;;;;;9.13;1.10;;;10.50;99.90;;;;;;5071086;28;20051;-48
2023/10/30 01:08:24;;;;;;;6.38;1.10;;;10.60;99.90;;;;;;5072296;28;20055;-46
2023/10/30 01:10:51;;;;;;;3.03;0.93;;;10.60;99.90;;;;;;5071619;28;20376;-48
2023/10/30 01:13:17;;;;;;;10.45;1.00;;;10.60;99.90;;;;;;5071804;28;20044;-48
2023/10/30 01:15:43;;;;;;;5.72;1.10;;;10.50;99.90;;;;;;5072020;28;20044;-50
2023/10/30 01:18:09;;;;;;;8.82;1.30;;;10.50;99.90;;;;;;5071995;28;20037;-47
2023/10/30 01:20:39;;;;;;;3.85;0.70;;;10.40;99.90;;;;;;5070395;28;20041;-49
2023/10/30 01:23:05;;;;;;;4.53;0.90;;;10.40;99.90;;;;;;5053967;28;20503;-47
2023/10/30 01:25:30;;;;;;;3.15;1.00;;;10.40;99.90;;;;;;5051783;28;20073;-48
2023/10/30 01:27:56;;;;;;;4.35;0.82;;;10.40;99.90;;;;;;5051341;28;20029;-47
2023/10/30 01:30:22;;;;;;;3.60;0.80;;;10.40;99.90;;;;;;5051889;28;20040;-49
2023/10/30 01:32:47;;;;;;;11.07;1.27;;;10.40;99.90;;;;;;5051785;28;20041;-48
2023/10/30 01:35:13;;;;;;;3.67;0.85;;;10.40;99.90;;;;;;5051681;28;20503;-49
2023/10/30 01:37:39;;;;;;;3.25;1.40;;;10.40;99.90;;;;;;5051639;28;20048;-49
2023/10/30 01:40:06;;;;;;;4.55;1.10;;;10.40;99.90;;;;;;5057497;28;20032;-51
2023/10/30 01:42:32;;;;;;;5.88;1.08;;;10.40;99.90;;;;;;5071310;28;20040;-51
2023/10/30 01:44:58;;;;;;;3.30;1.08;;;10.40;99.90;;;;;;5070182;28;20044;-47
2023/10/30 01:47:25;;;;;;;5.25;1.00;;;10.40;99.90;;;;;;5071544;28;20474;-49
2023/10/30 01:49:52;;;;;;;3.47;1.10;;;10.40;99.90;;;;;;5071406;28;20032;-50
2023/10/30 01:52:19;;;;;;;3.88;1.00;;;10.40;99.90;;;;;;5074389;28;20036;-50
2023/10/30 01:54:47;;;;;;;2.65;1.02;;;10.30;99.90;;;;;;5075517;28;20044;-48
2023/10/30 01:57:15;;;;;;;3.97;1.20;;;10.30;99.90;;;;;;5074291;28;20047;-49
2023/10/30 01:59:42;;;;;;;3.97;1.33;;;10.30;99.90;;;;;;5075422;28;20115;-48
2023/10/30 02:02:08;;;;;;;5.07;1.65;;;10.30;99.90;;;;;;5072928;28;20119;-47
2023/10/30 02:04:35;;;;;;;6.40;1.40;;;10.30;99.90;;;;;;5075613;28;20469;-47
2023/10/30 02:07:02;;;;;;;5.03;1.10;;;10.30;99.90;;;;;;5075236;28;20078;-46
2023/10/30 02:09:29;;;;;;;4.90;1.70;;;10.30;99.90;;;;;;5075428;28;20044;-47
2023/10/30 02:11:56;;;;;;;2.70;1.25;;;10.30;99.90;;;;;;5075082;28;20059;-48
2023/10/30 02:14:21;;;;;;;5.72;1.60;;;10.30;99.90;;;;;;5075452;28;20445;-47
2023/10/30 02:16:47;;;;;;;7.00;1.50;;;10.30;99.90;;;;;;5075309;28;20116;-50
2023/10/30 02:19:22;;;;;;;5.28;1.38;;;10.30;99.90;;;;;;5075159;28;20037;-47
2023/10/30 02:21:47;;;;;;;6.13;1.38;;;10.30;99.90;;;;;;5067912;28;20075;-47
2023/10/30 02:24:14;;;;;;;3.40;1.33;;;10.20;99.90;;;;;;5059393;28;20044;-46
2023/10/30 02:26:40;;;;;;;5.75;1.58;;;10.30;99.90;;;;;;5055134;28;20041;-46
2023/10/30 02:29:06;;;;;;;7.95;1.92;;;10.20;99.90;;;;;;5055032;28;20036;-47
2023/10/30 02:31:33;;;;;;;7.47;1.45;;;10.20;99.90;;;;;;5054709;28;20479;-47
2023/10/30 02:34:02;;;;;;;4.25;1.40;;;10.20;99.90;;;;;;5053638;28;20507;-48
2023/10/30 02:36:28;;;;;;;;;;;10.20;99.90;;;;;;5055133;28;20041;-46
2023/10/30 02:38:54;;;;;;;7.47;1.85;;;10.20;99.90;;;;;;5054980;28;19975;-48
2023/10/30 02:41:20;;;;;;;9.02;1.83;;;10.20;99.90;;;;;;5054707;28;20402;-48
2023/10/30 02:43:46;;;;;;;8.73;1.83;;;10.20;99.90;;;;;;5054840;28;20049;-47
2023/10/30 02:46:12;;;;;;;4.05;2.58;;;10.20;99.90;;;;;;5054561;28;20407;-49
2023/10/30 02:48:38;;;;;;;4.15;1.50;;;10.20;99.90;;;;;;5072344;28;20038;-50
2023/10/30 02:51:04;;;;;;;6.93;1.60;;;10.20;99.90;;;;;;5074424;28;20048;-50
2023/10/30 02:53:30;;;;;;;5.63;1.70;;;10.20;99.90;;;;;;5073581;28;20036;-47
2023/10/30 02:55:55;;;;;;;8.52;1.95;;;10.30;99.90;;;;;;5074741;28;20041;-51
2023/10/30 02:58:21;;;;;;;4.03;1.40;;;10.30;99.90;;;;;;5071971;28;20029;-47
2023/10/30 03:00:47;;;;;;;11.20;1.77;;;10.30;99.90;;;;;;5074472;28;20120;-47
2023/10/30 03:03:13;;;;;;;5.97;1.77;;;10.30;99.90;;;;;;5074205;28;20067;-46
2023/10/30 03:05:39;;;;;;;9.73;1.88;;;10.40;99.90;;;;;;5074346;28;20041;-47
2023/10/30 03:08:05;;;;;;;9.98;2.05;;;10.40;99.90;;;;;;5074178;28;20036;-47
2023/10/30 03:10:30;;;;;;;8.82;2.40;;;10.40;99.90;;;;;;5062908;28;20036;-46
2023/10/30 03:12:56;;;;;;;9.73;2.13;;;10.40;99.90;;;;;;5073084;28;20048;-48
2023/10/30 03:15:22;;;;;;;7.05;1.85;;;10.40;99.90;;;;;;5074169;28;20058;-50
2023/10/30 03:17:48;;;;;;;7.80;1.90;;;10.40;99.90;;;;;;5074452;28;20036;-47
2023/10/30 03:20:14;;;;;;;6.63;1.90;;;10.40;99.90;;;;;;5073958;28;20497;-51
2023/10/30 03:22:40;;;;;;;7.82;1.95;;;10.40;99.90;;;;;;5065383;28;20482;-47
2023/10/30 03:25:07;;;;;;;9.30;2.55;;;10.50;99.90;;;;;;5054107;28;20033;-46
2023/10/30 03:27:33;;;;;;;13.63;2.75;;;10.50;99.90;;;;;;5053559;28;20494;-47
2023/10/30 03:29:59;;;;;;;8.10;2.13;;;10.40;99.90;;;;;;5053856;28;20483;-46
2023/10/30 03:32:25;;;;;;;7.85;1.77;;;10.40;99.90;;;;;;5056590;28;20106;-46
2023/10/30 03:34:52;;;;;;;10.02;1.75;;;10.50;99.90;;;;;;5057970;28;20049;-45
2023/10/30 03:37:18;;;;;;;7.03;1.85;;;10.40;99.90;;;;;;5053578;28;20099;-46
2023/10/30 03:39:45;;;;;;;10.05;2.10;;;10.50;99.90;;;;;;5053495;28;20112;-46
2023/10/30 03:42:11;;;;;;;10.45;2.53;;;10.40;99.90;;;;;;5053616;28;20033;-47
2023/10/30 03:44:37;;;;;;;7.63;1.95;;;10.40;99.90;;;;;;5053404;28;20098;-49
2023/10/30 03:47:02;;;;;;;8.15;2.10;;;10.40;99.90;;;;;;5061826;28;20036;-50
2023/10/30 03:49:28;;;;;;;10.52;1.98;;;10.30;99.90;;;;;;5072935;28;20071;-49
2023/10/30 03:51:54;;;;;;;7.35;1.92;;;10.40;99.90;;;;;;5069127;28;20051;-50
2023/10/30 03:54:21;;;;;;;8.00;1.98;;;10.30;99.90;;;;;;5062029;28;20074;-49
2023/10/30 03:56:48;;;;;;;8.63;1.80;;;10.30;99.90;;;;;;5070165;28;20502;-48
2023/10/30 03:59:16;;;;;;;10.82;1.95;;;10.30;99.90;;;;;;5060053;28;20040;-46
2023/10/30 04:01:42;;;;;;;10.02;1.98;;;10.30;99.90;;;;;;5073312;28;20070;-48
2023/10/30 04:04:08;;;;;;;7.40;1.75;;;10.30;99.90;;;;;;5072970;28;20036;-46
2023/10/30 04:06:38;;;;;;;5.65;1.70;;;10.30;99.90;;;;;;5059968;28;20040;-49
2023/10/30 04:09:04;;;;;;;15.32;3.00;;;10.20;99.90;;;;;;5053157;28;20055;-47
2023/10/30 04:11:30;;;;;;;8.70;1.90;;;10.20;99.90;;;;;;5052984;28;20049;-49
2023/10/30 04:13:56;;;;;;;10.27;2.45;;;10.20;99.90;;;;;;5052431;28;20041;-48
2023/10/30 04:16:22;;;;;;;10.32;1.60;;;10.20;99.90;;;;;;5052942;28;20036;-49
2023/10/30 04:18:48;;;;;;;13.15;2.35;;;10.30;99.90;;;;;;5052791;28;20505;-48
2023/10/30 04:21:14;;;;;;;11.77;2.58;;;10.30;99.90;;;;;;5053033;28;20065;-47
2023/10/30 04:23:40;;;;;;;7.55;2.10;;;10.20;99.90;;;;;;5052844;28;20510;-49
2023/10/30 04:26:06;;;;;;;7.10;1.67;;;10.30;99.90;;;;;;5037922;28;20048;-46
2023/10/30 04:28:32;;;;;;;10.50;1.90;;;10.30;99.90;;;;;;5051247;28;20040;-49
2023/10/30 04:30:57;;;;;;;9.98;1.95;;;10.30;99.90;;;;;;5052793;28;20044;-49
2023/10/30 04:33:23;;;;;;;11.38;2.10;;;10.30;99.90;;;;;;5052705;28;20079;-48
2023/10/30 04:35:49;;;;;;;11.23;2.15;;;10.30;99.90;;;;;;5052553;28;20044;-45
2023/10/30 04:38:15;;;;;;;11.50;1.73;;;10.20;99.90;;;;;;5052360;28;20439;-49
2023/10/30 04:40:40;;;;;;;6.95;2.05;;;10.20;99.90;;;;;;5052729;28;20111;-48
2023/10/30 04:43:06;;;;;;;12.00;2.60;;;10.30;99.90;;;;;;5052321;28;20483;-51
2023/10/30 04:45:32;;;;;;;9.13;2.17;;;10.30;99.90;;;;;;5052273;28;20483;-49
2023/10/30 04:47:58;;;;;;;10.25;2.25;;;10.30;99.90;;;;;;5052278;28;20035;-47
2023/10/30 04:50:23;;;;;;;7.78;1.90;;;10.30;99.90;;;;;;5052497;28;20036;-49
2023/10/30 04:52:49;;;;;;;8.70;1.67;;;10.30;99.90;;;;;;5051961;28;20041;-48
2023/10/30 04:55:15;;;;;;;7.50;1.83;;;10.30;99.90;;;;;;5052396;28;20041;-48
2023/10/30 04:57:41;;;;;;;13.70;3.15;;;10.30;99.90;;;;;;5052273;28;20037;-50
2023/10/30 05:00:07;;;;;;;18.83;2.20;;;10.30;99.90;;;;;;5051906;28;20041;-47
2023/10/30 05:02:33;;;;;;;11.68;1.90;;;10.30;99.90;;;;;;5052165;28;20090;-47
2023/10/30 05:04:59;;;;;;;8.00;2.50;;;10.30;99.90;;;;;;5051895;28;20380;-46
2023/10/30 05:07:25;;;;;;;17.45;2.13;;;10.30;99.90;;;;;;5052255;28;20068;-47
2023/10/30 05:09:50;;;;;;;10.23;2.22;;;10.20;99.90;;;;;;5051920;28;20493;-48
2023/10/30 05:12:16;;;;;;;11.55;2.83;;;10.20;99.90;;;;;;5051939;28;20053;-51
2023/10/30 05:14:42;;;;;;;12.48;1.92;;;10.20;99.90;;;;;;5052269;28;20037;-48
2023/10/30 05:17:07;;;;;;;13.30;2.38;;;10.20;99.90;;;;;;5051849;28;20502;-47
2023/10/30 05:19:33;;;;;;;9.63;2.22;;;10.20;99.90;;;;;;5051749;28;20135;-46
2023/10/30 05:21:59;;;;;;;9.35;1.83;;;10.20;99.90;;;;;;5051638;28;20047;-47
2023/10/30 05:24:25;;;;;;;13.27;2.05;;;10.20;99.90;;;;;;5051470;28;20506;-48
2023/10/30 05:26:52;;;;;;;11.13;2.15;;;10.20;99.90;;;;;;5050865;28;20044;-48
2023/10/30 05:29:18;;;;;;;8.65;2.40;;;10.20;99.90;;;;;;5051763;28;20041;-46
2023/10/30 05:31:44;;;;;;;11.73;2.33;;;10.10;99.90;;;;;;5051592;28;20045;-46
2023/10/30 05:34:10;;;;;;;11.93;2.20;;;10.20;99.90;;;;;;5051636;28;20032;-46
2023/10/30 05:36:35;;;;;;;11.20;2.30;;;10.10;99.90;;;;;;5051773;28;20037;-47
2023/10/30 05:39:01;;;;;;;15.15;2.63;;;10.00;99.90;;;;;;5059819;28;20111;-51
2023/10/30 05:41:27;;;;;;;11.30;1.90;;;10.10;99.90;;;;;;5051674;28;20399;-48
2023/10/30 05:43:53;;;;;;;7.35;2.28;;;10.10;99.90;;;;;;5064899;28;20097;-49
2023/10/30 05:46:18;;;;;;;8.65;1.60;;;10.10;99.90;;;;;;5071618;28;20479;-48
2023/10/30 05:48:44;;;;;;;8.98;2.00;;;10.10;99.90;;;;;;5071630;28;20505;-51
2023/10/30 05:51:11;;;;;;;11.45;2.10;;;10.10;99.90;;;;;;5071310;28;20051;-47
2023/10/30 05:53:37;;;;;;;12.15;2.38;;;10.10;99.90;;;;;;5057491;28;20036;-48
2023/10/30 05:56:02;;;;;;;8.20;1.98;;;10.10;99.90;;;;;;5071573;28;20028;-48
2023/10/30 05:58:28;;;;;;;11.05;2.38;;;10.10;99.90;;;;;;5071363;28;20040;-47
2023/10/30 06:00:54;;;;;;;12.02;2.40;;;10.10;99.90;;;;;;5071598;28;20136;-50
2023/10/30 06:03:19;;;;;;;11.65;2.58;;;10.10;99.90;;;;;;5071401;28;20040;-48
2023/10/30 06:05:45;;;;;;;10.57;2.10;;;10.10;99.90;;;;;;5071332;28;20071;-47
2023/10/30 06:08:11;;;;;;;7.80;2.33;;;10.10;99.90;;;;;;5071594;28;20087;-46
2023/10/30 06:10:38;;;;;;;9.45;3.15;;;10.10;99.90;;;;;;5070833;28;20124;-49
2023/10/30 06:13:06;;;;;;;7.90;2.10;;;10.10;99.90;;;;;;5071199;28;20044;-48
2023/10/30 06:15:32;;;;;;;9.95;2.10;;;10.00;99.90;;;;;;5069879;28;20037;-47
2023/10/30 06:17:58;;;;;;;7.78;1.45;;;10.00;99.90;;;;;;5071410;28;20036;-48
2023/10/30 06:20:25;;;;;;;6.65;1.80;;;9.90;99.90;;;;;;5054932;28;20501;-47
2023/10/30 06:22:51;;;;;;;9.88;1.88;;;9.90;99.90;;;;;;5050905;28;20125;-49
2023/10/30 06:25:17;;;;;;;6.97;1.75;;;10.00;99.90;;;;;;5051016;28;20116;-47
2023/10/30 06:27:43;;;;;;;15.45;2.53;;;10.00;99.90;;;;;;5050403;28;20040;-46
2023/10/30 06:30:12;;;;;;;11.65;2.05;;;9.90;99.90;;;;;;5051192;28;20099;-47
2023/10/30 06:32:38;;;;;;;;;;;9.90;99.90;;;;;;5051366;28;20041;-50
2023/10/30 06:35:06;;;;;;;13.68;2.25;;;9.90;99.90;;;;;;5051038;28;19927;-50
2023/10/30 06:37:32;;;;;;;10.15;2.35;;;10.00;99.90;;;;;;5053234;28;20068;-47
2023/10/30 06:39:58;;;;;;;13.60;2.17;;;9.90;99.90;;;;;;5054588;28;20065;-47
2023/10/30 06:42:24;;;;;;;11.85;2.22;;;9.90;99.90;;;;;;5051260;28;20036;-46
2023/10/30 06:44:51;;;;;;;12.30;2.35;;;10.00;99.90;;;;;;5054139;28;20039;-47
2023/10/30 06:47:17;;;;;;;10.02;1.85;;;10.00;99.90;;;;;;5054548;28;20037;-50
2023/10/30 06:49:43;;;;;;;14.05;2.00;;;10.00;99.90;;;;;;5053923;28;20545;-47
2023/10/30 06:52:09;;;;;;;17.13;2.90;;;10.10;99.90;;;;;;5054189;28;20037;-47
2023/10/30 06:54:34;;;;;;;8.18;2.13;;;10.10;99.90;;;;;;5054180;28;20132;-46
2023/10/30 06:57:00;;;;;;;12.85;2.20;;;10.20;99.90;;;;;;5054294;28;20037;-46
2023/10/30 06:59:27;;;;;;;11.82;3.03;;;10.20;99.90;;;;;;5053807;28;20037;-49
2023/10/30 07:01:53;;;;;;;10.90;2.65;;;10.30;99.90;;;;;;5054189;28;20075;-46
2023/10/30 07:04:20;;;;;;;10.18;1.90;;;10.30;99.90;;;;;;5053044;28;20494;-48
2023/10/30 07:06:46;;;;;;;10.10;1.92;;;10.30;99.90;;;;;;5053925;28;20121;-47
2023/10/30 07:09:12;;;;;;;14.02;2.47;;;10.40;99.90;;;;;;5053974;28;20550;-47
2023/10/30 07:11:42;;;;;;;8.95;2.17;;;10.50;99.90;;;;;;5053499;28;20044;-46
2023/10/30 07:14:11;;;;;;;10.00;2.28;;;10.50;99.90;;;;;;5053882;28;20073;-47
2023/10/30 07:16:37;;;;;;;10.73;2.22;;;10.50;99.90;;;;;;5053684;28;20068;-46
2023/10/30 07:19:02;;;;;;;17.08;2.45;;;10.50;99.90;;;;;;5052476;28;20099;-48
2023/10/30 07:21:29;;;;;;;14.73;2.05;;;10.70;99.90;;;;;;5053777;28;20041;-49
2023/10/30 07:23:55;;;;;;;10.95;2.63;;;10.80;99.90;;;;;;5053562;28;20041;-51
2023/10/30 07:26:21;;;;;;;18.48;2.58;;;10.80;99.90;;;;;;5053539;28;20037;-45
2023/10/30 07:28:51;;;;;;;13.65;2.53;;;10.90;99.90;;;;;;5053729;28;20122;-47
2023/10/30 07:31:18;;;;;;;11.80;2.25;;;11.00;99.90;;;;;;5070144;28;20036;-50
2023/10/30 07:33:45;;;;;;;13.77;2.30;;;11.20;99.90;;;;;;5073647;28;20036;-50
2023/10/30 07:36:10;;;;;;;12.07;2.17;;;11.40;99.90;;;;;;5073521;28;20090;-47
2023/10/30 07:38:37;;;;;;;16.05;2.45;;;11.60;99.90;;;;;;5073455;28;20041;-49
2023/10/30 07:41:03;;;;;;;11.05;2.22;;;11.70;99.90;;;;;;5072795;28;20048;-48
2023/10/30 07:43:29;;;;;;;10.55;2.40;;;12.00;99.90;;;;;;5072373;28;20089;-48
2023/10/30 07:45:55;;;;;;;15.68;2.47;;;12.10;99.90;;;;;;5072163;28;20044;-47
2023/10/30 07:48:21;;;;;;;11.63;2.35;;;12.30;99.90;;;;;;5072588;28;20442;-49
2023/10/30 07:50:47;;;;;;;14.35;3.10;;;12.40;99.90;;;;;;5048126;28;20494;-49
2023/10/30 07:53:14;;;;;;;12.45;2.70;;;12.50;99.90;;;;;;5052523;28;20037;-46
2023/10/30 07:55:40;;;;;;;8.13;1.90;;;12.50;99.90;;;;;;5052623;28;20045;-47
2023/10/30 07:58:06;;;;;;;9.48;2.10;;;12.70;99.90;;;;;;5052718;28;20153;-46
2023/10/30 08:00:33;;;;;;;9.10;2.08;;;12.80;99.90;;;;;;5052633;28;20071;-50
2023/10/30 08:02:59;;;;;;;10.40;2.30;;;12.90;99.90;;;;;;5053095;28;20487;-47
2023/10/30 08:05:30;;;;;;;10.65;2.28;;;13.10;99.90;;;;;;5043891;28;20043;-46
2023/10/30 08:07:56;;;;;;;9.90;2.42;;;13.30;99.90;;;;;;5053160;28;20490;-47
2023/10/30 08:10:22;;;;;;;8.88;2.35;;;13.50;99.90;;;;;;5053095;28;20112;-46
2023/10/30 08:12:47;;;;;;;9.27;2.83;;;13.70;99.90;;;;;;5052533;28;20491;-47
2023/10/30 08:15:13;;;;;;;9.70;2.78;;;13.90;99.90;;;;;;5052886;28;20096;-47
2023/10/30 08:17:39;;;;;;;12.88;2.55;;;14.00;99.90;;;;;;5053003;28;20029;-48
2023/10/30 08:20:05;;;;;;;9.80;2.65;;;14.20;99.90;;;;;;5052633;28;20436;-47
2023/10/30 08:22:32;;;;;;;12.95;2.38;;;14.40;99.90;;;;;;5051622;28;20041;-48
2023/10/30 08:24:59;;;;;;;12.43;2.88;;;14.50;99.90;;;;;;5052814;28;20111;-51
2023/10/30 08:27:25;;;;;;;11.43;2.45;;;14.60;99.90;;;;;;5052504;28;20033;-49
2023/10/30 08:29:50;;;;;;;8.52;2.13;;;14.60;99.90;;;;;;5051330;28;20117;-48
2023/10/30 08:32:19;;;;;;;9.02;2.20;;;14.80;99.90;;;;;;5052108;28;20471;-49
2023/10/30 08:34:44;;;;;;;11.57;2.13;;;14.90;99.90;;;;;;5052354;28;20072;-45
2023/10/30 08:37:10;;;;;;;11.95;2.83;;;14.90;99.90;;;;;;5052419;28;20075;-46
2023/10/30 08:39:36;;;;;;;17.42;2.70;;;14.90;99.90;;;;;;5052624;28;20388;-46
2023/10/30 08:42:02;;;;;;;14.65;2.63;;;15.00;99.90;;;;;;5052403;28;20426;-46
2023/10/30 08:44:28;;;;;;;12.80;2.63;;;15.00;99.90;;;;;;5052450;28;20045;-47
2023/10/30 08:46:53;;;;;;;12.90;2.33;;;15.00;99.90;;;;;;5052565;28;20047;-47
2023/10/30 08:49:19;;;;;;;12.88;2.35;;;14.90;99.90;;;;;;5051989;28;20041;-45
2023/10/30 08:51:45;;;;;;;10.55;2.33;;;14.90;99.90;;;;;;5052208;28;20048;-47
2023/10/30 08:54:11;;;;;;;15.65;2.92;;;14.90;99.90;;;;;;5052276;28;20045;-48
2023/10/30 08:56:38;;;;;;;7.82;2.50;;;14.80;99.90;;;;;;5052343;28;20041;-47
2023/10/30 08:59:04;;;;;;;16.02;2.70;;;14.70;99.90;;;;;;5052213;28;20479;-47
2023/10/30 09:01:33;;;;;;;12.40;2.45;;;14.60;99.90;;;;;;5052226;28;20036;-46
2023/10/30 09:03:59;;;;;;;11.63;2.78;;;14.70;99.90;;;;;;5052043;28;20041;-48
2023/10/30 09:06:26;;;;;;;10.43;2.30;;;14.60;99.90;;;;;;5051885;28;20094;-47
2023/10/30 09:08:53;;;;;;;13.25;2.55;;;14.60;99.90;;;;;;5052234;28;20118;-48
2023/10/30 09:11:18;;;;;;;9.85;2.45;;;14.50;99.90;;;;;;5050773;28;20204;-48
2023/10/30 09:13:47;;;;;;;13.20;2.33;;;14.40;99.90;;;;;;5052080;28;20143;-45
2023/10/30 09:16:13;;;;;;;12.32;2.50;;;14.40;99.90;;;;;;5052208;28;20037;-48
2023/10/30 09:18:38;;;;;;;12.60;3.25;;;14.40;99.90;;;;;;5051962;28;20033;-47
2023/10/30 09:21:05;;;;;;;9.18;2.15;;;14.30;99.90;;;;;;5050539;28;20387;-49
2023/10/30 09:23:30;;;;;;;8.77;2.03;;;14.20;99.90;;;;;;5051694;28;20033;-47
2023/10/30 09:25:56;;;;;;;9.48;2.25;;;14.20;99.90;;;;;;5057577;28;20047;-48
2023/10/30 09:28:22;;;;;;;8.15;2.03;;;14.20;99.90;;;;;;5071586;28;20033;-48
2023/10/30 09:30:49;;;;;;;10.48;2.10;;;14.20;99.90;;;;;;5071408;28;20048;-49
2023/10/30 09:33:15;;;;;;;14.98;2.85;;;14.20;99.90;;;;;;5071649;28;20044;-46
2023/10/30 09:35:42;;;;;;;11.35;3.38;;;14.10;99.90;;;;;;5071738;28;20041;-45
2023/10/30 09:38:08;;;;;;;18.42;3.42;;;14.10;99.90;;;;;;5071805;28;20108;-46
2023/10/30 09:40:34;;;;;;;9.70;2.22;;;14.00;99.90;;;;;;5059383;28;20033;-48
2023/10/30 09:43:04;;;;;;;9.48;2.83;;;14.00;99.90;;;;;;5051532;28;20475;-49
2023/10/30 09:45:29;;;;;;;12.05;2.58;;;14.00;99.90;;;;;;5051582;28;20040;-51
2023/10/30 09:47:56;;;;;;;15.52;3.10;;;14.10;99.90;;;;;;5051349;28;20514;-48
2023/10/30 09:50:25;;;;;;;12.70;2.33;;;14.10;99.90;;;;;;5050222;28;20060;-50
2023/10/30 09:52:55;;;;;;;10.73;2.35;;;14.20;99.90;;;;;;5051354;28;20136;-48
2023/10/30 09:55:22;;;;;;;12.88;2.33;;;14.20;99.90;;;;;;5050271;28;20035;-49
2023/10/30 09:57:51;;;;;;;12.10;2.90;;;14.30;99.90;;;;;;5049999;28;20041;-46
2023/10/30 10:00:17;;;;;;;11.43;2.65;;;14.30;99.90;;;;;;5051521;28;20036;-46
2023/10/30 10:02:44;;;;;;;9.15;2.13;;;14.40;99.90;;;;;;5051612;28;20106;-46
2023/10/30 10:05:10;;;;;;;11.75;2.00;;;14.40;99.90;;;;;;5049985;28;20116;-47
2023/10/30 10:07:36;;;;;;;11.18;2.47;;;14.40;99.90;;;;;;5051626;28;20060;-48
2023/10/30 10:10:05;;;;;;;8.60;2.20;;;14.50;99.90;;;;;;5051190;28;20490;-47
2023/10/30 10:12:31;;;;;;;;;;;14.50;99.90;;;;;;5053937;28;20118;-47
2023/10/30 10:14:57;;;;;;;11.52;2.45;;;14.50;99.90;;;;;;5055200;28;19922;-46
2023/10/30 10:17:23;;;;;;;12.57;2.30;;;14.60;99.90;;;;;;5055248;28;20039;-46
2023/10/30 10:19:49;;;;;;;8.75;2.10;;;14.60;99.90;;;;;;5055402;28;20124;-46
2023/10/30 10:22:28;;;;;;;14.63;3.05;;;14.70;99.90;;;;;;5055002;28;20117;-46
2023/10/30 10:24:55;;;;;;;11.82;2.58;;;14.70;99.90;;;;;;5060011;28;20098;-45
2023/10/30 10:27:22;;;;;;;12.13;2.65;;;14.70;99.90;;;;;;5074099;28;20029;-46
2023/10/30 10:29:56;;;;;;;9.90;2.35;;;14.80;99.90;;;;;;5073872;28;20139;-47
2023/10/30 10:32:26;;;;;;;11.60;2.13;;;14.90;99.90;;;;;;5073865;28;20037;-47
2023/10/30 10:35:07;;;;;;;15.48;2.80;;;14.90;99.90;;;;;;5074741;28;20127;-47
2023/10/30 10:37:33;;;;;;;7.97;1.80;;;15.00;99.90;;;;;;5074847;28;20452;-46
2023/10/30 10:40:01;;;;;;;12.32;2.65;;;15.00;99.90;;;;;;5067060;28;20116;-49
2023/10/30 10:42:30;;;;;;;14.85;2.42;;;15.10;99.90;;;;;;5055030;28;20109;-47
2023/10/30 10:44:57;;;;;;;9.57;2.30;;;15.10;99.90;;;;;;5039887;28;20120;-47
2023/10/30 10:47:23;;;;;;;10.90;2.50;;;15.10;99.90;;;;;;5054536;28;20051;-47
2023/10/30 10:49:50;;;;;;;13.88;2.83;;;15.20;99.90;;;;;;5054426;28;20116;-47
2023/10/30 10:52:18;;;;;;;14.48;3.03;;;15.20;99.90;;;;;;5054526;28;20399;-45
2023/10/30 10:54:50;;;;;;;12.98;2.45;;;15.30;99.90;;;;;;5054409;28;20391;-46
2023/10/30 10:57:18;;;;;;;14.07;2.50;;;15.20;99.90;;;;;;5054728;28;20387;-46
2023/10/30 10:59:54;;;;;;;8.20;2.08;;;15.20;99.90;;;;;;5054404;28;20033;-47
2023/10/30 11:02:28;;;;;;;11.93;2.20;;;15.30;99.90;;;;;;5053343;28;20124;-46
2023/10/30 11:04:55;;;;;;;9.63;1.92;;;15.30;99.90;;;;;;5054272;28;20045;-48
2023/10/30 11:07:52;;;;;;;13.13;2.42;;;15.20;99.90;;;;;;5054186;28;20124;-46
2023/10/30 11:10:27;;;;;;;9.57;2.53;;;15.40;99.90;;;;;;5061862;28;20118;-46
2023/10/30 11:13:11;;;;;;;13.02;2.65;;;15.40;99.90;;;;;;5073846;28;20048;-47
2023/10/30 11:15:45;;;;;;;10.57;2.30;;;15.30;99.90;;;;;;5074094;28;20076;-47
2023/10/30 11:18:24;;;;;;;7.03;2.30;;;15.40;99.90;;;;;;5074069;28;20043;-45
2023/10/30 11:21:16;;;;;;;11.48;2.00;;;15.50;99.90;;;;;;5074128;28;20375;-47
2023/10/30 11:23:45;;;;;;;16.15;2.85;;;15.60;99.90;;;;;;5056249;28;20444;-46
2023/10/30 11:26:38;;;;;;;10.88;2.10;;;15.60;99.90;;;;;;5063222;28;20048;-47
2023/10/30 11:29:10;;;;;;;17.67;2.67;;;15.50;99.90;;;;;;5073937;28;20037;-45
2023/10/30 11:32:01;;;;;;;15.55;2.53;;;15.50;99.90;;;;;;5058225;28;20049;-47
2023/10/30 11:34:37;;;;;;;11.80;2.83;;;15.60;99.90;;;;;;5073298;28;20047;-46
2023/10/30 11:37:11;;;;;;;11.13;2.05;;;15.80;99.90;;;;;;5067223;28;20390;-47
2023/10/30 11:39:45;;;;;;;11.13;2.53;;;15.80;99.90;;;;;;5069349;28;20110;-47
2023/10/30 11:42:23;;;;;;;10.77;3.03;;;15.80;99.90;;;;;;5053675;28;20044;-52
2023/10/30 11:44:53;;;;;;;9.93;2.53;;;15.70;99.90;;;;;;5053823;28;20075;-45
2023/10/30 11:47:23;;;;;;;14.40;2.28;;;15.70;99.90;;;;;;5053755;28;20455;-46
2023/10/30 11:49:49;;;;;;;8.40;1.70;;;15.50;99.90;;;;;;5052199;28;20116;-46
2023/10/30 11:52:15;;;;;;;11.13;2.50;;;15.50;99.90;;;;;;5052644;28;20044;-48
2023/10/30 11:54:48;;;;;;;10.52;2.13;;;15.60;99.90;;;;;;5052904;28;20471;-46
2023/10/30 11:57:14;;;;;;;8.27;2.00;;;15.70;99.90;;;;;;5068787;28;20037;-47
2023/10/30 11:59:40;;;;;;;9.73;2.40;;;15.80;99.90;;;;;;5053320;28;20119;-48
2023/10/30 12:02:06;;;;;;;9.93;2.40;;;15.90;99.90;;;;;;5053655;28;20148;-47
2023/10/30 12:04:35;;;;;;;13.50;2.17;;;16.10;99.90;;;;;;5049364;28;20072;-48
2023/10/30 12:07:00;;;;;;;10.93;2.40;;;16.20;99.90;;;;;;5053135;28;20037;-48
2023/10/30 12:09:26;;;;;;;11.60;2.85;;;16.40;99.90;;;;;;5060962;28;20098;-50
2023/10/30 12:11:53;;;;;;;11.48;2.45;;;16.40;99.90;;;;;;5055051;28;20091;-49
2023/10/30 12:14:19;;;;;;;12.07;2.08;;;16.30;99.90;;;;;;5053109;28;20561;-49
2023/10/30 12:16:49;;;;;;;8.25;1.85;;;16.20;99.90;;;;;;5052741;28;20078;-47
2023/10/30 12:19:22;;;;;;;7.97;1.95;;;16.10;99.90;;;;;;5051779;28;20091;-47
2023/10/30 12:21:49;;;;;;;12.13;2.38;;;16.10;99.90;;;;;;5052807;28;20102;-47
2023/10/30 12:24:16;;;;;;;8.85;2.05;;;16.00;99.90;;;;;;5052930;28;20036;-47
2023/10/30 12:26:42;;;;;;;14.82;2.17;;;15.90;99.90;;;;;;5058658;28;20032;-48
2023/10/30 12:29:08;;;;;;;13.70;2.63;;;15.70;99.90;;;;;;5052070;28;20391;-47
2023/10/30 12:31:37;;;;;;;17.55;2.67;;;15.70;99.90;;;;;;5051248;28;20052;-46
2023/10/30 12:34:18;;;;;;;9.80;2.08;;;15.60;99.90;;;;;;5050836;28;20049;-46
2023/10/30 12:36:43;;;;;;;11.05;2.60;;;15.50;99.90;;;;;;5039157;28;20046;-48
2023/10/30 12:39:17;;;;;;;9.27;2.10;;;15.50;99.90;;;;;;5052298;28;20132;-48
2023/10/30 12:41:44;;;;;;;12.45;2.35;;;15.60;99.90;;;;;;5052727;28;20159;-47